• Join FlightAware (Why Join?)
  • Login
  • US Flag 
06:18AM EDT


 

Airport Tracker/Info


-or-


 

Live Flight TrackerFlight Track Log ✈ SKW6440 ✈ 03-May-2013 ✈ KDEN - KMSP

Flight Track Log - Related Links

Times and Time Zones

All times are in EDT time to prevent confusion due to time zone crossing. See the SKW6440 flight status page for this flight to view local times or setup timezone preferences in your user account.

Time Position Orientation Groundspeed Altitude Reporting Facility
EDT Latitude Longitude Course Direction KTS MPH feet Rate Location/Type
06:30PM 39.9500 -104.6667 37° Northeast 209 241 8,500  Level Denver TRACON
06:31PM 40.0000 -104.6167 37° Northeast 261 300 9,900 1,860 Climbing Denver TRACON
06:32PM 40.0833 -104.5667 25° Northeast 306 352 12,300 2,220 Climbing Denver TRACON
06:33PM 40.2656 -104.5000 North  Level FlightAware Approximate
06:33PM 40.1417 -104.5242 29° Northeast 306 352 14,000  Level Denver Center
06:34PM 40.3633 -104.4208 44° Northeast  Level FlightAware Approximate
06:34PM 40.2222 -104.4708 27° Northeast 323 372 16,500  Level Denver Center
06:35PM 40.4654 -104.3347 37° Northeast  Level FlightAware Approximate
06:35PM 40.3036 -104.4158 27° Northeast 333 383 18,200  Level Denver Center
06:36PM 40.3967 -104.3564 26° Northeast 345 397 20,400 1,860 Climbing Denver Center
06:37PM 40.4814 -104.2975 28° Northeast 350 403 22,100 1,740 Climbing Denver Center
06:38PM 40.5789 -104.2328 27° Northeast 364 419 24,000 1,620 Climbing Denver Center
06:39PM 40.6575 -104.1292 45° Northeast 373 429 25,500 1,320 Climbing Denver Center
06:40PM 40.7353 -104.0347 43° Northeast 378 435 26,800 1,200 Climbing Denver Center
06:41PM 40.8142 -103.9333 44° Northeast 390 449 28,000 1,140 Climbing Denver Center
06:42PM 40.8947 -103.8286 44° Northeast 401 461 29,200 1,080 Climbing Denver Center
06:43PM 40.9761 -103.7228 44° Northeast 407 468 30,300 960 Climbing Denver Center
06:44PM 41.0553 -103.6189 45° Northeast 412 474 31,200 960 Climbing Denver Center
06:45PM 41.1489 -103.4986 44° Northeast 421 484 32,300 1,080 Climbing Denver Center
06:46PM 41.2281 -103.3942 45° Northeast 421 484 33,500 1,200 Climbing Denver Center
06:47PM 41.3183 -103.2761 44° Northeast 410 472 34,800 960 Climbing Denver Center
06:48PM 41.3897 -103.1633 50° Northeast 417 480 35,500 720 Climbing Denver Center
06:49PM 41.4558 -103.0094 60° Northeast 429 494 36,300 720 Climbing Denver Center
06:50PM 41.5136 -102.8783 59° Northeast 429 494 37,000 300 Climbing Denver Center
06:51PM 41.5800 -102.7256 60° Northeast 427 491 37,000  Level Denver Center
06:52PM 41.6369 -102.5956 60° Northeast 424 488 37,000  Level Denver Center
06:53PM 41.7011 -102.4444 60° Northeast 420 483 37,000  Level Denver Center
06:54PM 41.7553 -102.3186 60° Northeast 414 476 37,000  Level Denver Center
06:55PM 41.8189 -102.1708 60° Northeast 407 468 37,000 240 Level Denver Center
06:56PM 41.8708 -102.0450 61° Northeast 402 463 37,500 300 Climbing Denver Center
06:58PM 41.9250 -101.9161 61° Northeast 413 475 37,700 180 Climbing Denver Center
06:59PM 41.9989 -101.7422 60° Northeast 420 483 38,000 360 Climbing Denver Center
07:00PM 42.0642 -101.5867 60° Northeast 426 490 38,600 420 Climbing Denver Center
07:01PM 42.1275 -101.4331 61° Northeast 420 483 39,000 180 Climbing Denver Center
07:02PM 42.1922 -101.2761 61° Northeast 427 491 39,000  Level Denver Center
07:03PM 42.2478 -101.1425 61° Northeast 427 491 39,000  Level Denver Center
07:04PM 42.3119 -100.9828 61° Northeast 432 497 39,000  Level Denver Center
07:05PM 42.3683 -100.8456 61° Northeast 435 501 39,000  Level Denver Center
07:06PM 42.4325 -100.6847 62° Northeast 435 501 39,000  Level Denver Center
07:07PM 42.4883 -100.5478 61° Northeast 433 498 39,000  Level Denver Center
07:08PM 42.5425 -100.4100 62° Northeast 433 498 39,000  Level Denver Center
07:09PM 42.6053 -100.2542 61° Northeast 425 489 39,000  Level Denver Center
07:10PM 42.6592 -100.1189 62° Northeast 424 488 39,000  Level Denver Center
07:11PM 42.7192 -99.9678 62° Northeast 424 488 39,000  Level Denver Center
07:12PM 42.7736 -99.8272 62° Northeast 422 486 39,000  Level Denver Center
07:13PM 42.8164 -99.7181 62° Northeast 415 478 39,000  Level Denver Center
07:15PM 42.8972 -99.5122 62° Northeast 416 479 39,000  Level Minneapolis Center
07:16PM 42.9500 -99.3764 62° Northeast 407 468 39,000  Level Minneapolis Center
07:17PM 43.0031 -99.2369 62° Northeast 412 474 39,000  Level Minneapolis Center
07:18PM 43.0561 -99.0969 63° Northeast 413 475 39,000  Level Minneapolis Center
07:19PM 43.1172 -98.9383 62° Northeast 419 482 39,000  Level Minneapolis Center
07:20PM 43.1706 -98.7944 63° Northeast 422 486 39,000  Level Minneapolis Center
07:21PM 43.2256 -98.6500 62° Northeast 428 493 39,000  Level Minneapolis Center
07:22PM 43.2792 -98.5047 63° Northeast 429 494 39,000  Level Minneapolis Center
07:23PM 43.3436 -98.3322 63° Northeast 425 489 39,000  Level Minneapolis Center
07:24PM 43.3967 -98.1881 63° Northeast 425 489 39,000  Level Minneapolis Center
07:25PM 43.4511 -98.0431 63° Northeast 427 491 39,000  Level Minneapolis Center
07:26PM 43.5028 -97.8983 64° Northeast 425 489 39,000  Level Minneapolis Center
07:27PM 43.5572 -97.7536 63° Northeast 426 490 39,000  Level Minneapolis Center
07:28PM 43.6094 -97.6083 64° Northeast 426 490 39,000  Level Minneapolis Center
07:29PM 43.6619 -97.4617 64° Northeast 426 490 39,000  Level Minneapolis Center
07:30PM 43.7256 -97.2861 63° Northeast 428 493 39,000  Level Minneapolis Center
07:31PM 43.7775 -97.1392 64° Northeast 427 491 39,000  Level Minneapolis Center
07:32PM 43.8300 -96.9919 64° Northeast 429 494 39,000  Level Minneapolis Center
07:33PM 43.8822 -96.8439 64° Northeast 430 495 39,000  Level Minneapolis Center
07:34PM 43.9333 -96.6975 64° Northeast 425 489 39,000  Level Minneapolis Center
07:35PM 43.9847 -96.5506 64° Northeast 425 489 39,000  Level Minneapolis Center
07:36PM 44.0458 -96.3756 64° Northeast 423 487 39,000  Level Minneapolis Center
07:37PM 44.0944 -96.2289 65° Northeast 424 488 39,000  Level Minneapolis Center
07:38PM 44.1447 -96.0894 63° Northeast 422 486 39,000  Level Minneapolis Center
07:39PM 44.1944 -95.9433 65° Northeast 426 490 39,000  Level Minneapolis Center
07:40PM 44.2544 -95.7683 64° Northeast 421 484 39,000  Level Minneapolis Center
07:41PM 44.3044 -95.6200 65° Northeast 424 488 39,000 -960 Level Minneapolis Center
07:42PM 44.3558 -95.4692 64° Northeast 430 495 37,100 -2,580 Descending Minneapolis Center
07:43PM 44.4111 -95.3047 65° Northeast 463 533 33,800 -3,300 Descending Minneapolis Center
07:44PM 44.4639 -95.1428 65° Northeast 461 531 30,300 -3,360 Descending Minneapolis Center
07:45PM 44.5036 -94.9781 71° East 450 518 26,900 -3,540 Descending Minneapolis Center
07:47PM 44.5497 -94.7858 71° East 439 505 23,100 -3,360 Descending Minneapolis Center
07:48PM 44.5847 -94.6331 72° East 420 483 20,100 -2,760 Descending Minneapolis Center
07:49PM 44.6158 -94.4892 73° East 415 478 17,500 -2,760 Descending Minneapolis Center
07:50PM 44.6517 -94.3419 71° East 400 460 14,500 -2,760 Descending Minneapolis Center
07:51PM 44.6839 -94.2031 72° East 372 428 11,800 -1,740 Descending Minneapolis Center
07:52PM 44.7178 -94.0500 73° East 338 389 11,000 -420 Descending Minneapolis Center
07:53PM 44.7453 -93.9261 73° East 331 381 11,000  Level Minneapolis Center
07:54PM 44.7689 -93.8217 72° East 281 323 11,000  Level Minneapolis Center
07:55PM 44.7914 -93.7197 73° East 273 314 11,000 -360 Level Minneapolis Center
07:56PM 44.8131 -93.6197 73° East 267 307 10,300 -900 Descending Minneapolis Center
07:57PM 44.8347 -93.5225 73° East 261 300 9,200 -1,140 Descending Minneapolis Center
07:58PM 44.8558 -93.4231 73° East 263 303 8,000 -600 Descending Minneapolis Center
07:59PM 44.8253 -93.3239 113° Southeast 230 265 8,000  Level Minneapolis Center
08:00PM 44.7958 -93.2528 120° Southeast 211 243 8,000  Level Minneapolis Center
08:01PM 44.7664 -93.1786 119° Southeast 208 239 8,000 -480 Level Minneapolis Center
08:02PM 44.7375 -93.1056 119° Southeast 211 243 7,100 -960 Descending Minneapolis Center
08:03PM 44.7081 -93.0333 120° Southeast 212 244 6,100 -1,020 Descending Minneapolis Center
08:04PM 44.6969 -92.9625 102° East 210 242 5,100 -900 Descending Minneapolis Center
08:05PM 44.7400 -92.9175 37° Northeast 195 224 4,300 -540 Descending Minneapolis Center
08:06PM 44.7892 -92.9789 318° Northwest 203 234 4,000 -360 Descending Minneapolis Center
08:07PM 44.8144 -93.0417 300° West 187 215 3,600 -420 Descending Minneapolis Center